createdAt,value
2022-08-16T00:01:57.277Z,6.90
2022-08-16T00:04:01.743Z,5.07
2022-08-16T00:06:07.062Z,5.38
2022-08-16T00:08:09.111Z,6.28
2022-08-16T00:10:33.315Z,5.53
2022-08-16T00:12:35.247Z,6.78
2022-08-16T00:14:36.930Z,6.97
2022-08-16T00:17:00.657Z,5.53
2022-08-16T00:19:01.251Z,5.55
2022-08-16T00:21:04.357Z,5.85
2022-08-16T00:23:06.750Z,6.30
2022-08-16T00:25:16.667Z,6.78
2022-08-16T00:27:18.393Z,7.25
2022-08-16T00:29:20.259Z,6.03
2022-08-16T00:31:24.187Z,7.25
2022-08-16T00:33:26.151Z,6.95
2022-08-16T00:35:31.171Z,6.25
2022-08-16T00:37:57.806Z,8.20
2022-08-16T00:39:58.766Z,6.82
2022-08-16T00:42:00.679Z,8.02
2022-08-16T00:44:11.048Z,7.82
2022-08-16T00:46:34.852Z,7.82
2022-08-16T00:48:43.833Z,6.07
2022-08-16T00:50:46.493Z,7.50
2022-08-16T00:52:51.328Z,5.30
2022-08-16T00:54:53.394Z,8.02
2022-08-16T00:56:59.636Z,6.75
2022-08-16T00:59:02.432Z,7.15
2022-08-16T01:01:08.832Z,7.20
2022-08-16T01:03:14.678Z,8.55
2022-08-16T01:05:16.591Z,6.55
2022-08-16T01:07:20.152Z,6.22
2022-08-16T01:09:22.895Z,7.55
2022-08-16T01:11:26.011Z,5.63
2022-08-16T01:13:31.469Z,7.55
2022-08-16T01:15:36.167Z,8.40
2022-08-16T01:17:39.081Z,7.25
2022-08-16T01:19:52.303Z,7.82
2022-08-16T01:22:48.221Z,8.80
2022-08-16T01:24:53.277Z,7.50
2022-08-16T01:27:15.391Z,7.95
2022-08-16T01:29:47.163Z,7.82
2022-08-16T01:31:49.385Z,7.05
2022-08-16T01:33:53.865Z,6.35
2022-08-16T01:36:01.644Z,5.75
2022-08-16T01:38:22.158Z,7.55
2022-08-16T01:40:30.278Z,6.80
2022-08-16T01:42:32.246Z,7.10
2022-08-16T01:44:38.252Z,6.28
2022-08-16T01:46:46.780Z,6.63
2022-08-16T01:48:49.537Z,7.53
2022-08-16T01:51:09.788Z,6.28
2022-08-16T01:53:13.781Z,6.00
2022-08-16T01:55:18.373Z,8.13
2022-08-16T01:57:22.784Z,8.32
2022-08-16T01:59:28.468Z,6.72
2022-08-16T02:01:31.789Z,7.73
2022-08-16T02:03:33.814Z,8.52
2022-08-16T02:05:35.619Z,7.47
2022-08-16T02:07:39.022Z,6.45
2022-08-16T02:09:58.864Z,7.53
2022-08-16T02:12:49.769Z,6.95
2022-08-16T02:14:27.234Z,8.40
2022-08-16T02:16:29.301Z,8.02
2022-08-16T02:18:31.152Z,6.22
2022-08-16T02:20:39.581Z,7.85
2022-08-16T02:22:44.375Z,8.93
2022-08-16T02:24:49.553Z,6.13
2022-08-16T02:26:52.037Z,6.38
2022-08-16T02:28:54.212Z,6.90
2022-08-16T02:30:59.504Z,6.32
2022-08-16T02:33:03.748Z,6.60
2022-08-16T02:35:06.238Z,6.13
2022-08-16T02:37:11.412Z,7.50
2022-08-16T02:39:14.808Z,5.93
2022-08-16T02:41:16.702Z,7.05
2022-08-16T02:43:19.552Z,5.95
2022-08-16T02:45:27.828Z,7.45
2022-08-16T02:47:29.830Z,6.65
2022-08-16T02:49:58.448Z,7.03
2022-08-16T02:51:53.024Z,7.93
2022-08-16T02:53:57.365Z,7.82
2022-08-16T02:55:59.252Z,6.53
2022-08-16T02:58:02.195Z,8.80
2022-08-16T03:00:34.594Z,8.50
2022-08-16T03:02:31.780Z,6.97
2022-08-16T03:04:50.281Z,9.93
2022-08-16T03:06:56.416Z,7.93
2022-08-16T03:08:58.952Z,7.38
2022-08-16T03:11:02.426Z,8.48
2022-08-16T03:13:12.685Z,8.05
2022-08-16T03:15:15.305Z,8.45
2022-08-16T03:17:19.715Z,10.57
2022-08-16T03:19:23.525Z,7.15
2022-08-16T03:21:25.501Z,6.97
2022-08-16T03:23:28.260Z,8.60
2022-08-16T03:25:44.250Z,7.30
2022-08-16T03:27:46.533Z,8.60
2022-08-16T03:29:54.526Z,8.52
2022-08-16T03:31:56.557Z,8.38
2022-08-16T03:34:00.961Z,10.80
2022-08-16T03:36:29.970Z,9.23
2022-08-16T03:38:34.243Z,8.73
2022-08-16T03:40:38.077Z,9.63
2022-08-16T03:43:19.273Z,9.32
2022-08-16T03:45:03.373Z,9.60
2022-08-16T03:47:10.380Z,11.43
2022-08-16T03:49:13.157Z,9.75
2022-08-16T03:51:15.498Z,9.82
2022-08-16T03:53:17.213Z,12.27
2022-08-16T03:55:18.861Z,9.05
2022-08-16T03:57:21.768Z,12.40
2022-08-16T03:59:24.348Z,10.10
2022-08-16T04:01:29.145Z,10.95
2022-08-16T04:03:31.568Z,9.98
2022-08-16T04:05:47.337Z,9.25
2022-08-16T04:07:49.155Z,10.27
2022-08-16T04:09:52.521Z,11.00
2022-08-16T04:11:54.464Z,12.43
2022-08-16T04:14:01.849Z,10.55
2022-08-16T04:16:26.708Z,10.35
2022-08-16T04:18:30.873Z,8.70
2022-08-16T04:20:37.071Z,9.57
2022-08-16T04:22:39.811Z,11.52
2022-08-16T04:24:41.854Z,9.20
2022-08-16T04:26:56.195Z,10.20
2022-08-16T04:29:15.070Z,8.00
2022-08-16T04:31:20.357Z,10.00
2022-08-16T04:33:27.474Z,9.70
2022-08-16T04:35:34.282Z,8.53
2022-08-16T04:37:41.838Z,8.17
2022-08-16T04:39:47.195Z,9.57
2022-08-16T04:41:57.440Z,9.05
2022-08-16T04:44:00.670Z,8.68
2022-08-16T04:46:03.249Z,10.27
2022-08-16T04:48:05.412Z,7.95
2022-08-16T04:50:12.037Z,9.53
2022-08-16T04:52:34.030Z,10.23
2022-08-16T04:54:37.460Z,10.10
2022-08-16T04:56:46.300Z,10.95
2022-08-16T04:58:48.126Z,10.23
2022-08-16T05:00:50.320Z,9.25
2022-08-16T05:02:56.275Z,13.07
2022-08-16T05:05:00.370Z,9.50
2022-08-16T05:07:02.151Z,10.13
2022-08-16T05:09:06.307Z,9.85
2022-08-16T05:11:10.443Z,10.05
2022-08-16T05:13:15.788Z,9.95
2022-08-16T05:15:17.970Z,9.73
2022-08-16T05:17:20.352Z,11.52
2022-08-16T05:19:35.941Z,9.65
2022-08-16T05:21:41.576Z,9.75
2022-08-16T05:23:51.446Z,10.55
2022-08-16T05:25:53.500Z,10.15
2022-08-16T05:27:56.566Z,10.88
2022-08-16T05:30:01.275Z,10.73
2022-08-16T05:32:32.662Z,9.20
2022-08-16T05:34:28.550Z,9.02
2022-08-16T05:36:33.951Z,12.27
2022-08-16T05:38:39.391Z,9.45
2022-08-16T05:40:42.026Z,10.15
2022-08-16T05:42:58.987Z,11.10
2022-08-16T05:45:01.266Z,10.60
2022-08-16T05:47:08.420Z,9.07
2022-08-16T05:49:10.725Z,9.45
2022-08-16T05:51:14.100Z,9.52
2022-08-16T05:53:36.401Z,9.55
2022-08-16T05:55:41.006Z,8.82
2022-08-16T05:57:42.644Z,9.15
2022-08-16T05:59:47.312Z,9.10
2022-08-16T06:01:52.657Z,8.68
2022-08-16T06:03:55.012Z,9.00
2022-08-16T06:06:00.595Z,8.57
2022-08-16T06:08:02.454Z,8.75
2022-08-16T06:10:05.479Z,8.15
2022-08-16T06:12:08.316Z,9.53
2022-08-16T06:14:11.281Z,10.60
2022-08-16T06:16:18.201Z,10.80
2022-08-16T06:18:20.361Z,11.60
2022-08-16T06:20:35.965Z,7.18
2022-08-16T06:22:39.720Z,8.50
2022-08-16T06:24:54.776Z,7.25
2022-08-16T06:26:58.394Z,8.55
2022-08-16T06:29:00.205Z,7.43
2022-08-16T06:31:02.043Z,9.88
2022-08-16T06:33:04.109Z,9.45
2022-08-16T06:35:07.186Z,7.80
2022-08-16T06:37:08.865Z,8.75
2022-08-16T06:39:11.500Z,8.98
2022-08-16T06:41:13.912Z,9.13
2022-08-16T06:43:15.867Z,10.48
2022-08-16T06:45:20.891Z,7.68
2022-08-16T06:47:53.686Z,7.85
2022-08-16T06:49:54.078Z,10.80
2022-08-16T06:52:02.911Z,8.48
2022-08-16T06:54:05.933Z,8.35
2022-08-16T06:56:14.270Z,8.10
2022-08-16T06:58:31.218Z,8.95
2022-08-16T07:00:33.684Z,9.05
2022-08-16T07:02:35.316Z,8.20
2022-08-16T07:04:37.317Z,8.60
2022-08-16T07:06:40.765Z,8.02
2022-08-16T07:08:46.530Z,7.63
2022-08-16T07:10:50.122Z,10.50
2022-08-16T07:13:03.910Z,7.82
2022-08-16T07:15:18.728Z,7.35
2022-08-16T07:17:22.999Z,8.30
2022-08-16T07:20:03.648Z,8.40
2022-08-16T07:21:59.834Z,7.40
2022-08-16T07:24:06.198Z,11.48
2022-08-16T07:26:10.121Z,8.93
2022-08-16T07:28:20.735Z,7.43
2022-08-16T07:30:45.816Z,10.95
2022-08-16T07:32:51.340Z,7.80
2022-08-16T07:34:53.368Z,7.65
2022-08-16T07:36:58.291Z,8.45
2022-08-16T07:39:00.464Z,6.97
2022-08-16T07:41:02.445Z,8.75
2022-08-16T07:43:12.060Z,7.93
2022-08-16T07:45:14.156Z,6.53
2022-08-16T07:47:19.182Z,6.03
2022-08-16T07:49:26.184Z,8.52
2022-08-16T07:51:37.173Z,7.30
2022-08-16T07:53:43.720Z,7.50
2022-08-16T07:55:48.254Z,8.48
2022-08-16T07:58:00.957Z,7.57
2022-08-16T08:00:06.122Z,7.30
2022-08-16T08:02:21.161Z,6.43
2022-08-16T08:04:22.900Z,6.07
2022-08-16T08:06:28.738Z,6.82
2022-08-16T08:08:50.777Z,7.28
2022-08-16T08:10:52.522Z,6.47
2022-08-16T08:12:55.060Z,8.43
2022-08-16T08:15:01.074Z,6.60
2022-08-16T08:17:05.297Z,6.90
2022-08-16T08:19:12.315Z,6.05
2022-08-16T08:21:14.041Z,9.02
2022-08-16T08:23:15.740Z,7.13
2022-08-16T08:25:18.361Z,7.10
2022-08-16T08:27:22.597Z,5.78
2022-08-16T08:29:37.807Z,7.50
2022-08-16T08:31:42.446Z,7.10
2022-08-16T08:33:47.369Z,7.78
2022-08-16T08:35:57.653Z,8.18
2022-08-16T08:38:03.070Z,7.00
2022-08-16T08:40:10.672Z,8.25
2022-08-16T08:42:12.345Z,8.25
2022-08-16T08:44:29.883Z,8.57
2022-08-16T08:46:35.749Z,5.97
2022-08-16T08:48:38.516Z,8.60
2022-08-16T08:50:50.007Z,7.65
2022-08-16T08:52:53.868Z,8.40
2022-08-16T08:54:55.683Z,8.55
2022-08-16T08:56:57.419Z,9.60
2022-08-16T08:59:03.127Z,7.88
2022-08-16T09:01:09.514Z,5.95
2022-08-16T09:03:11.168Z,7.28
2022-08-16T09:05:14.879Z,6.38
2022-08-16T09:07:17.708Z,7.78
2022-08-16T09:09:21.769Z,10.80
2022-08-16T09:11:23.421Z,6.82
2022-08-16T09:13:47.121Z,9.10
2022-08-16T09:15:50.653Z,8.10
2022-08-16T09:17:56.993Z,9.82
2022-08-16T09:20:01.496Z,6.10
2022-08-16T09:22:05.899Z,7.63
2022-08-16T09:24:46.410Z,7.70
2022-08-16T09:26:45.876Z,5.75
2022-08-16T09:29:16.838Z,9.07
2022-08-16T09:31:11.132Z,8.50
2022-08-16T09:33:19.794Z,7.82
2022-08-16T09:35:22.628Z,6.43
2022-08-16T09:37:29.730Z,11.13
2022-08-16T09:39:41.630Z,9.80
2022-08-16T09:41:53.202Z,8.52
2022-08-16T09:43:59.735Z,8.15
2022-08-16T09:46:48.447Z,6.90
2022-08-16T09:48:36.868Z,7.47
2022-08-16T09:50:46.620Z,7.65
2022-08-16T09:52:48.513Z,8.25
2022-08-16T09:54:50.188Z,10.80
2022-08-16T09:56:53.830Z,7.90
2022-08-16T09:59:05.743Z,7.18
2022-08-16T10:01:11.136Z,7.47
2022-08-16T10:03:13.215Z,7.88
2022-08-16T10:05:14.890Z,6.97
2022-08-16T10:07:18.203Z,7.28
2022-08-16T10:09:19.820Z,8.75
2022-08-16T10:11:50.492Z,6.82
2022-08-16T10:13:52.773Z,8.18
2022-08-16T10:15:59.963Z,7.70
2022-08-16T10:18:56.490Z,5.90
2022-08-16T10:20:32.596Z,7.55
2022-08-16T10:22:35.960Z,9.85
2022-08-16T10:24:37.820Z,6.18
2022-08-16T10:27:16.209Z,7.32
2022-08-16T10:29:04.815Z,5.32
2022-08-16T10:31:08.548Z,5.93
2022-08-16T10:33:14.891Z,5.30
2022-08-16T10:35:18.696Z,6.57
2022-08-16T10:37:35.900Z,4.68
2022-08-16T10:39:41.373Z,5.80
2022-08-16T10:41:43.884Z,7.35
2022-08-16T10:43:47.632Z,6.85
2022-08-16T10:46:00.595Z,5.68
2022-08-16T10:48:03.512Z,6.70
2022-08-16T10:50:07.116Z,5.65
2022-08-16T10:52:24.217Z,6.53
2022-08-16T10:54:29.764Z,6.00
2022-08-16T10:56:52.092Z,6.10
2022-08-16T10:59:29.630Z,6.15
2022-08-16T11:03:43.075Z,7.28
2022-08-16T11:06:05.961Z,9.48
2022-08-16T11:08:08.457Z,5.50
2022-08-16T11:11:05.360Z,6.50
2022-08-16T11:12:35.907Z,13.30
2022-08-16T11:14:38.786Z,6.38
2022-08-16T11:19:12.826Z,5.28
2022-08-16T11:21:29.318Z,5.75
2022-08-16T11:23:31.366Z,4.78
2022-08-16T11:27:57.529Z,6.85
2022-08-16T11:30:00.917Z,4.50
2022-08-16T11:32:05.608Z,4.82
2022-08-16T11:34:09.968Z,4.63
2022-08-16T11:36:27.760Z,7.88
2022-08-16T11:38:51.079Z,5.13
2022-08-16T11:40:58.164Z,4.32
2022-08-16T11:43:04.139Z,7.70
2022-08-16T11:45:06.921Z,8.88
2022-08-16T11:47:09.445Z,4.88
2022-08-16T11:49:13.875Z,8.18
2022-08-16T11:51:15.691Z,5.32
2022-08-16T11:53:18.746Z,6.57
2022-08-16T11:55:20.428Z,9.77
2022-08-16T11:57:25.296Z,5.43
2022-08-16T11:59:29.363Z,7.03
2022-08-16T12:01:44.594Z,6.90
2022-08-16T12:03:52.873Z,5.75
2022-08-16T12:05:56.386Z,4.20
2022-08-16T12:07:58.432Z,4.65
2022-08-16T12:10:06.823Z,5.53
2022-08-16T12:12:10.481Z,6.50
2022-08-16T12:14:14.271Z,6.05
2022-08-16T12:16:20.440Z,4.75
2022-08-16T12:18:22.656Z,7.65
2022-08-16T12:20:31.281Z,6.60
2022-08-16T12:22:43.888Z,6.85
2022-08-16T12:24:51.019Z,6.07
2022-08-16T12:26:54.951Z,7.18
2022-08-16T12:28:59.520Z,5.90
2022-08-16T12:31:01.857Z,7.15
2022-08-16T12:33:05.156Z,6.05
2022-08-16T12:35:12.508Z,6.45
2022-08-16T12:37:15.559Z,4.80
2022-08-16T12:39:20.353Z,5.25
2022-08-16T12:41:25.074Z,5.18
2022-08-16T12:43:31.244Z,5.43
2022-08-16T12:45:40.647Z,3.95
2022-08-16T12:48:29.759Z,4.03
2022-08-16T12:50:33.052Z,6.90
2022-08-16T12:52:36.788Z,7.30
2022-08-16T12:54:40.672Z,5.97
2022-08-16T12:56:42.767Z,4.30
2022-08-16T12:58:49.708Z,4.18
2022-08-16T13:00:52.859Z,5.85
2022-08-16T13:02:54.569Z,3.17
2022-08-16T13:04:56.229Z,5.38
2022-08-16T13:06:59.198Z,6.05
2022-08-16T13:09:02.481Z,8.70
2022-08-16T13:11:07.890Z,6.20
2022-08-16T13:13:10.202Z,4.22
2022-08-16T13:15:15.996Z,6.97
2022-08-16T13:17:22.167Z,4.57
2022-08-16T13:19:24.052Z,4.25
2022-08-16T13:21:36.803Z,4.00
2022-08-16T13:23:43.309Z,6.45
2022-08-16T13:25:49.742Z,7.38
2022-08-16T13:28:02.494Z,6.35
2022-08-16T13:30:36.656Z,7.38
2022-08-16T13:32:39.730Z,7.40
2022-08-16T13:34:42.326Z,5.80
2022-08-16T13:36:49.276Z,6.00
2022-08-16T13:38:51.477Z,3.90
2022-08-16T13:40:57.315Z,4.88
2022-08-16T13:42:59.419Z,5.65
2022-08-16T13:45:01.106Z,4.68
2022-08-16T13:47:03.985Z,4.63
2022-08-16T13:49:05.756Z,5.55
2022-08-16T13:51:07.577Z,4.57
2022-08-16T13:53:09.220Z,6.68
2022-08-16T13:55:17.877Z,5.90
2022-08-16T13:57:19.850Z,6.70
2022-08-16T13:59:22.198Z,3.50
2022-08-16T14:01:23.852Z,6.88
2022-08-16T14:03:27.420Z,3.85
2022-08-16T14:05:31.833Z,5.85
2022-08-16T14:07:35.240Z,7.22
2022-08-16T14:09:43.221Z,3.35
2022-08-16T14:11:44.799Z,7.75
2022-08-16T14:13:46.505Z,4.50
2022-08-16T14:15:48.325Z,5.60
2022-08-16T14:18:17.566Z,4.88
2022-08-16T14:20:19.074Z,4.15
2022-08-16T14:22:30.128Z,5.13
2022-08-16T14:24:33.248Z,5.10
2022-08-16T14:26:34.882Z,4.35
2022-08-16T14:28:36.471Z,7.07
2022-08-16T14:30:38.713Z,6.25
2022-08-16T14:32:43.273Z,7.90
2022-08-16T14:34:48.751Z,4.30
2022-08-16T14:36:53.680Z,4.50
2022-08-16T14:38:55.304Z,2.92
2022-08-16T14:40:56.868Z,5.28
2022-08-16T14:42:58.718Z,4.47
2022-08-16T14:45:10.942Z,6.07
2022-08-16T14:47:16.234Z,6.63
2022-08-16T14:49:17.801Z,3.33
2022-08-16T14:51:21.200Z,3.88
2022-08-16T14:53:26.423Z,5.53
2022-08-16T14:55:29.896Z,3.88
2022-08-16T14:57:32.253Z,3.70
2022-08-16T14:59:34.411Z,3.13
2022-08-16T15:01:58.604Z,4.20
2022-08-16T15:04:05.116Z,5.10
2022-08-16T15:06:08.537Z,4.88
2022-08-16T15:08:14.924Z,6.90
2022-08-16T15:10:23.877Z,3.75
2022-08-16T15:12:30.854Z,3.88
2022-08-16T15:14:33.164Z,3.53
2022-08-16T15:16:35.477Z,5.00
2022-08-16T15:18:39.295Z,4.05
2022-08-16T15:20:41.539Z,4.85
2022-08-16T15:22:46.471Z,3.10
2022-08-16T15:24:48.169Z,4.15
2022-08-16T15:26:52.693Z,4.43
2022-08-16T15:28:55.745Z,3.47
2022-08-16T15:31:00.919Z,5.32
2022-08-16T15:33:11.160Z,3.58
2022-08-16T15:35:13.469Z,6.75
2022-08-16T15:37:15.505Z,4.03
2022-08-16T15:39:30.173Z,3.30
2022-08-16T15:41:43.682Z,6.45
2022-08-16T15:43:45.346Z,3.83
2022-08-16T15:46:05.851Z,6.22
2022-08-16T15:48:12.185Z,6.93
2022-08-16T15:50:13.773Z,4.78
2022-08-16T15:52:24.829Z,6.78
2022-08-16T15:54:33.537Z,3.22
2022-08-16T15:56:35.785Z,5.45
2022-08-16T15:58:38.376Z,5.45
2022-08-16T16:00:42.326Z,6.00
2022-08-16T16:02:46.822Z,5.18
2022-08-16T16:04:51.250Z,3.33
2022-08-16T16:06:56.728Z,6.55
2022-08-16T16:09:00.969Z,5.03
2022-08-16T16:11:05.883Z,3.03
2022-08-16T16:13:09.473Z,3.50
2022-08-16T16:15:12.133Z,6.47
2022-08-16T16:17:16.742Z,5.93
2022-08-16T16:19:21.111Z,3.35
2022-08-16T16:21:22.839Z,5.13
2022-08-16T16:23:29.912Z,4.22
2022-08-16T16:25:33.610Z,6.60
2022-08-16T16:27:35.829Z,5.05
2022-08-16T16:29:40.325Z,4.13
2022-08-16T16:31:43.881Z,4.70
2022-08-16T16:33:55.865Z,4.28
2022-08-16T16:36:00.222Z,3.92
2022-08-16T16:38:02.375Z,4.28
2022-08-16T16:40:12.789Z,4.90
2022-08-16T16:42:29.203Z,5.03
2022-08-16T16:44:36.186Z,5.15
2022-08-16T16:46:42.054Z,8.35
2022-08-16T16:48:45.543Z,3.00
2022-08-16T16:50:48.370Z,5.25
2022-08-16T16:52:55.576Z,3.08
2022-08-16T16:54:58.641Z,4.00
2022-08-16T16:57:00.919Z,4.47
2022-08-16T16:59:07.581Z,4.75
2022-08-16T17:01:12.651Z,5.25
2022-08-16T17:03:18.260Z,3.85
2022-08-16T17:05:26.224Z,5.40
2022-08-16T17:07:32.363Z,4.50
2022-08-16T17:09:34.890Z,3.88
2022-08-16T17:11:44.580Z,3.28
2022-08-16T17:13:46.176Z,3.78
2022-08-16T17:15:52.175Z,3.80
2022-08-16T17:17:59.693Z,5.07
2022-08-16T17:20:16.940Z,5.95
2022-08-16T17:22:21.867Z,4.63
2022-08-16T17:24:31.307Z,3.97
2022-08-16T17:26:41.653Z,4.35
2022-08-16T17:28:59.010Z,5.47
2022-08-16T17:31:02.799Z,4.03
2022-08-16T17:33:08.737Z,4.93
2022-08-16T17:35:18.167Z,4.75
2022-08-16T17:37:22.181Z,4.85
2022-08-16T17:39:59.842Z,7.50
2022-08-16T17:42:00.959Z,6.15
2022-08-16T17:44:04.227Z,4.28
2022-08-16T17:46:41.376Z,3.20
2022-08-16T17:48:35.475Z,4.43
2022-08-16T17:50:37.619Z,4.88
2022-08-16T17:52:48.593Z,4.97
2022-08-16T17:54:51.568Z,3.88
2022-08-16T17:56:53.979Z,3.72
2022-08-16T17:58:56.032Z,5.80
2022-08-16T18:00:59.868Z,4.90
2022-08-16T18:03:01.697Z,5.63
2022-08-16T18:05:04.943Z,7.07
2022-08-16T18:07:06.619Z,5.20
2022-08-16T18:09:10.435Z,5.35
2022-08-16T18:11:18.144Z,6.72
2022-08-16T18:13:19.768Z,4.40
2022-08-16T18:15:23.440Z,3.40
2022-08-16T18:17:25.911Z,3.15
2022-08-16T18:19:27.538Z,5.82
2022-08-16T18:21:47.963Z,4.40
2022-08-16T18:23:49.642Z,4.25
2022-08-16T18:25:55.644Z,6.72
2022-08-16T18:27:57.296Z,4.90
2022-08-16T18:29:59.099Z,4.50
2022-08-16T18:32:04.628Z,7.07
2022-08-16T18:34:06.289Z,4.07
2022-08-16T18:36:21.079Z,4.47
2022-08-16T18:38:23.269Z,3.25
2022-08-16T18:40:25.132Z,3.88
2022-08-16T18:42:26.803Z,4.22
2022-08-16T18:44:33.342Z,6.65
2022-08-16T18:46:38.775Z,3.80
2022-08-16T18:48:40.369Z,4.05
2022-08-16T18:51:03.208Z,5.10
2022-08-16T18:53:08.568Z,4.97
2022-08-16T18:55:14.025Z,5.15
2022-08-16T18:57:16.496Z,3.90
2022-08-16T18:59:18.432Z,3.92
2022-08-16T19:01:21.124Z,4.78
2022-08-16T19:03:27.072Z,3.30
2022-08-16T19:05:31.050Z,5.10
2022-08-16T19:07:32.667Z,3.38
2022-08-16T19:09:34.463Z,4.53
2022-08-16T19:11:36.206Z,4.60
2022-08-16T19:13:37.845Z,3.65
2022-08-16T19:15:42.522Z,5.00
2022-08-16T19:17:45.885Z,4.57
2022-08-16T19:19:47.473Z,4.85
2022-08-16T19:21:49.133Z,4.07
2022-08-16T19:23:50.752Z,5.00
2022-08-16T19:25:57.809Z,5.97
2022-08-16T19:28:01.010Z,4.68
2022-08-16T19:30:03.724Z,6.13
2022-08-16T19:32:19.763Z,3.88
2022-08-16T19:34:21.331Z,6.50
2022-08-16T19:36:31.306Z,5.55
2022-08-16T19:38:35.607Z,7.00
2022-08-16T19:40:38.624Z,5.88
2022-08-16T19:42:46.179Z,3.28
2022-08-16T19:44:50.477Z,4.65
2022-08-16T19:46:52.190Z,5.13
2022-08-16T19:48:53.904Z,6.10
2022-08-16T19:50:55.495Z,5.18
2022-08-16T19:53:18.397Z,6.07
2022-08-16T19:55:22.690Z,6.10
2022-08-16T19:57:24.770Z,4.57
2022-08-16T19:59:39.544Z,7.22
2022-08-16T20:01:43.906Z,4.82
2022-08-16T20:03:45.491Z,5.43
2022-08-16T20:05:51.045Z,6.65
2022-08-16T20:07:55.816Z,5.97
2022-08-16T20:10:04.007Z,5.13
2022-08-16T20:12:10.679Z,4.85
2022-08-16T20:14:24.100Z,3.85
2022-08-16T20:16:26.774Z,5.95
2022-08-16T20:18:28.378Z,6.63
2022-08-16T20:20:29.993Z,8.98
2022-08-16T20:22:53.093Z,3.95
2022-08-16T20:24:55.624Z,5.97
2022-08-16T20:26:57.624Z,6.93
2022-08-16T20:28:59.181Z,4.57
2022-08-16T20:31:01.513Z,3.83
2022-08-16T20:33:09.798Z,8.02
2022-08-16T20:35:13.864Z,3.92
2022-08-16T20:37:16.600Z,5.30
2022-08-16T20:39:18.249Z,7.68
2022-08-16T20:41:19.811Z,5.72
2022-08-16T20:43:21.497Z,6.47
2022-08-16T20:45:27.087Z,6.70
2022-08-16T20:47:29.320Z,5.80
2022-08-16T20:49:31.011Z,6.45
2022-08-16T20:51:32.653Z,6.38
2022-08-16T20:53:48.816Z,5.97
2022-08-16T20:55:50.446Z,6.50
2022-08-16T20:57:52.201Z,5.20
2022-08-16T20:59:53.806Z,8.30
2022-08-16T21:01:56.173Z,6.50
2022-08-16T21:03:59.795Z,8.55
2022-08-16T21:06:02.280Z,6.15
2022-08-16T21:08:27.902Z,5.95
2022-08-16T21:10:27.104Z,7.30
2022-08-16T21:12:29.178Z,7.80
2022-08-16T21:14:36.454Z,5.57
2022-08-16T21:16:40.857Z,5.93
2022-08-16T21:18:42.914Z,6.88
2022-08-16T21:20:44.599Z,5.13
2022-08-16T21:22:59.022Z,8.15
2022-08-16T21:25:00.689Z,6.47
2022-08-16T21:27:02.761Z,6.10
2022-08-16T21:29:05.205Z,7.35
2022-08-16T21:31:13.386Z,5.93
2022-08-16T21:33:17.181Z,6.97
2022-08-16T21:35:19.331Z,6.13
2022-08-16T21:37:20.988Z,5.95
2022-08-16T21:39:22.563Z,7.28
2022-08-16T21:41:24.512Z,6.60
2022-08-16T21:43:28.744Z,6.15
2022-08-16T21:45:30.360Z,8.80
2022-08-16T21:47:32.124Z,6.05
2022-08-16T21:49:33.754Z,7.10
2022-08-16T21:51:38.495Z,6.53
2022-08-16T21:53:41.636Z,9.90
2022-08-16T21:55:45.556Z,5.55
2022-08-16T21:57:47.200Z,8.73
2022-08-16T21:59:53.959Z,6.18
2022-08-16T22:01:55.763Z,7.07
2022-08-16T22:04:09.529Z,7.88
2022-08-16T22:06:19.385Z,7.60
2022-08-16T22:08:21.172Z,6.40
2022-08-16T22:11:07.183Z,7.65
2022-08-16T22:12:46.229Z,7.45
2022-08-16T22:14:48.703Z,6.00
2022-08-16T22:16:50.437Z,7.32
2022-08-16T22:18:52.767Z,5.90
2022-08-16T22:20:54.535Z,7.07
2022-08-16T22:23:14.929Z,7.70
2022-08-16T22:25:17.339Z,7.05
2022-08-16T22:27:18.895Z,5.85
2022-08-16T22:29:20.537Z,6.93
2022-08-16T22:31:22.168Z,6.53
2022-08-16T22:33:27.622Z,6.82
2022-08-16T22:35:29.262Z,6.40
2022-08-16T22:37:30.824Z,7.95
2022-08-16T22:39:32.477Z,9.35
2022-08-16T22:41:36.053Z,8.73
2022-08-16T22:43:38.076Z,7.35
2022-08-16T22:45:40.423Z,6.65
2022-08-16T22:47:42.573Z,6.47
2022-08-16T22:49:44.186Z,6.80
2022-08-16T22:51:46.197Z,6.53
2022-08-16T22:53:48.124Z,6.90
2022-08-16T22:55:49.947Z,6.75
2022-08-16T22:57:51.639Z,6.43
2022-08-16T22:59:53.267Z,5.43
2022-08-16T23:01:55.401Z,6.07
2022-08-16T23:03:57.322Z,6.93
2022-08-16T23:06:01.997Z,9.18
2022-08-16T23:08:05.572Z,6.72
2022-08-16T23:10:07.496Z,5.95
2022-08-16T23:12:09.530Z,7.00
2022-08-16T23:14:11.161Z,7.95
2022-08-16T23:16:13.615Z,6.75
2022-08-16T23:18:17.330Z,7.18
2022-08-16T23:20:22.725Z,8.68
2022-08-16T23:22:24.689Z,5.90
2022-08-16T23:24:27.475Z,7.85
2022-08-16T23:26:44.773Z,8.00
2022-08-16T23:28:49.803Z,5.40
2022-08-16T23:30:52.559Z,6.60
2022-08-16T23:32:59.511Z,10.13
2022-08-16T23:35:04.320Z,6.47
2022-08-16T23:37:06.691Z,8.15
2022-08-16T23:39:08.354Z,7.18
2022-08-16T23:41:12.213Z,6.43
2022-08-16T23:43:19.594Z,6.57
2022-08-16T23:45:21.557Z,5.70
2022-08-16T23:47:23.138Z,6.65
2022-08-16T23:50:00.471Z,8.77
2022-08-16T23:51:48.213Z,8.02
2022-08-16T23:53:50.206Z,6.97
2022-08-16T23:55:55.166Z,6.35
2022-08-16T23:57:57.597Z,6.95
2022-08-16T23:59:59.200Z,7.55
